createdAt,value
2022-09-26T00:01:40.343Z,100812.72
2022-09-26T00:04:15.864Z,100809.16
2022-09-26T00:06:44.228Z,100800.38
2022-09-26T00:09:13.389Z,100804.75
2022-09-26T00:11:42.124Z,100789.84
2022-09-26T00:14:17.807Z,100791.56
2022-09-26T00:16:45.845Z,100782.78
2022-09-26T00:19:16.411Z,100781.91
2022-09-26T00:21:46.449Z,100779.25
2022-09-26T00:24:14.404Z,100777.47
2022-09-26T00:26:41.945Z,100773.94
2022-09-26T00:29:12.904Z,100762.50
2022-09-26T00:31:44.490Z,100765.09
2022-09-26T00:34:14.497Z,100760.72
2022-09-26T00:36:41.871Z,100757.16
2022-09-26T00:39:11.156Z,100755.38
2022-09-26T00:41:39.095Z,100745.72
2022-09-26T00:44:40.625Z,100754.47
2022-09-26T00:47:27.481Z,100749.16
2022-09-26T00:50:06.849Z,100735.97
2022-09-26T00:52:49.009Z,100731.59
2022-09-26T00:55:20.369Z,100729.81
2022-09-26T00:57:58.078Z,100720.16
2022-09-26T01:00:28.617Z,100725.38
2022-09-26T01:02:56.472Z,100728.00
2022-09-26T01:05:24.743Z,100721.78
2022-09-26T01:07:56.399Z,100707.75
2022-09-26T01:10:25.462Z,100705.97
2022-09-26T01:12:53.889Z,100700.69
2022-09-26T01:15:21.499Z,100697.19
2022-09-26T01:17:49.587Z,100697.19
2022-09-26T01:20:28.546Z,100692.81
2022-09-26T01:23:32.914Z,100685.91
2022-09-26T01:26:00.022Z,100685.81
2022-09-26T01:28:48.749Z,100678.81
2022-09-26T01:32:08.299Z,100676.16
2022-09-26T01:35:08.423Z,100666.50
2022-09-26T01:38:14.407Z,100663.88
2022-09-26T01:41:34.313Z,100650.69
2022-09-26T01:44:26.694Z,100634.88
2022-09-26T01:47:31.929Z,100638.44
2022-09-26T01:50:23.662Z,100641.06
2022-09-26T01:53:03.911Z,100627.00
2022-09-26T01:56:07.230Z,100618.25
2022-09-26T01:58:48.329Z,100602.41
2022-09-26T02:01:18.946Z,100610.34
2022-09-26T02:04:08.995Z,100604.19
2022-09-26T02:06:53.183Z,100593.69
2022-09-26T02:09:30.320Z,100584.91
2022-09-26T02:12:04.953Z,100577.91
2022-09-26T02:14:38.424Z,100573.47
2022-09-26T02:17:17.202Z,100566.44
2022-09-26T02:20:01.893Z,100564.75
2022-09-26T02:22:34.443Z,100562.19
2022-09-26T02:25:04.477Z,100569.22
2022-09-26T02:27:33.183Z,100546.38
2022-09-26T02:30:00.338Z,100544.63
2022-09-26T02:32:32.233Z,100537.59
2022-09-26T02:35:01.174Z,100538.47
2022-09-26T02:37:32.329Z,100534.94
2022-09-26T02:40:01.255Z,100530.50
2022-09-26T02:42:43.678Z,100522.63
2022-09-26T02:45:47.866Z,100516.44
2022-09-26T02:48:52.849Z,100507.66
2022-09-26T02:51:36.240Z,100505.91
2022-09-26T02:54:37.075Z,100500.59
2022-09-26T02:57:31.718Z,100497.97
2022-09-26T03:00:24.280Z,100498.81
2022-09-26T03:03:12.834Z,100490.03
2022-09-26T03:05:44.436Z,100485.63
2022-09-26T03:08:23.210Z,100485.63
2022-09-26T03:10:51.858Z,100486.53
2022-09-26T03:13:20.861Z,100479.47
2022-09-26T03:15:54.861Z,100475.88
2022-09-26T03:18:28.350Z,100469.75
2022-09-26T03:20:55.869Z,100469.78
2022-09-26T03:23:28.486Z,100457.47
2022-09-26T03:26:16.271Z,100453.13
2022-09-26T03:28:44.662Z,100457.47
2022-09-26T03:31:11.939Z,100457.50
2022-09-26T03:33:39.224Z,100447.81
2022-09-26T03:36:09.696Z,100445.22
2022-09-26T03:38:37.197Z,100438.22
2022-09-26T03:41:05.125Z,100434.69
2022-09-26T03:43:32.937Z,100429.34
2022-09-26T03:46:06.312Z,100432.00
2022-09-26T03:48:34.301Z,100421.44
2022-09-26T03:51:14.089Z,100422.34
2022-09-26T03:53:43.737Z,100418.81
2022-09-26T03:56:18.282Z,100409.16
2022-09-26T03:58:49.224Z,100399.47
2022-09-26T04:01:20.163Z,100385.47
2022-09-26T04:03:51.039Z,100391.59
2022-09-26T04:06:20.947Z,100383.69
2022-09-26T04:08:51.811Z,100377.63
2022-09-26T04:11:24.718Z,100377.56
2022-09-26T04:13:53.907Z,100367.09
2022-09-26T04:16:24.034Z,100366.22
2022-09-26T04:18:57.659Z,100361.03
2022-09-26T04:21:27.483Z,100356.72
2022-09-26T04:23:54.839Z,100352.25
2022-09-26T04:26:24.311Z,100337.34
2022-09-26T04:28:56.381Z,100345.25
2022-09-26T04:31:26.353Z,100329.44
2022-09-26T04:33:57.468Z,100330.31
2022-09-26T04:36:25.034Z,100326.00
2022-09-26T04:38:52.700Z,100318.06
2022-09-26T04:41:22.327Z,100320.63
2022-09-26T04:43:49.761Z,100311.88
2022-09-26T04:46:28.286Z,100303.97
2022-09-26T04:48:59.874Z,100304.00
2022-09-26T04:51:29.626Z,100302.25
2022-09-26T04:53:57.449Z,100294.38
2022-09-26T04:56:27.797Z,100277.69
2022-09-26T04:58:57.257Z,100268.91
2022-09-26T05:01:25.902Z,100258.38
2022-09-26T05:03:56.609Z,100261.03
2022-09-26T05:06:26.867Z,100254.94
2022-09-26T05:08:55.070Z,100261.94
2022-09-26T05:11:22.608Z,100259.31
2022-09-26T05:13:53.656Z,100249.69
2022-09-26T05:16:22.097Z,100247.94
2022-09-26T05:18:52.863Z,100239.16
2022-09-26T05:21:20.235Z,100241.69
2022-09-26T05:24:05.903Z,100237.34
2022-09-26T05:26:44.323Z,100233.88
2022-09-26T05:29:12.405Z,100225.09
2022-09-26T05:31:40.835Z,100213.66
2022-09-26T05:34:18.504Z,100203.16
2022-09-26T05:36:47.293Z,100195.31
2022-09-26T05:39:33.576Z,100202.38
2022-09-26T05:42:01.106Z,100197.97
2022-09-26T05:44:28.857Z,100199.78
2022-09-26T05:46:57.382Z,100195.53
2022-09-26T05:49:27.639Z,100193.78
2022-09-26T05:51:58.038Z,100185.00
2022-09-26T05:54:25.345Z,100185.03
2022-09-26T05:56:53.807Z,100181.53
2022-09-26T05:59:23.210Z,100179.78
2022-09-26T06:01:50.460Z,100191.13
2022-09-26T06:04:17.573Z,100190.31
2022-09-26T06:06:44.883Z,100187.56
2022-09-26T06:09:12.020Z,100187.59
2022-09-26T06:11:39.214Z,100183.31
2022-09-26T06:14:07.207Z,100171.00
2022-09-26T06:16:34.442Z,100166.50
2022-09-26T06:19:02.674Z,100154.19
2022-09-26T06:21:30.043Z,100147.13
2022-09-26T06:23:57.203Z,100139.16
2022-09-26T06:26:28.365Z,100140.91
2022-09-26T06:29:00.814Z,100132.06
2022-09-26T06:31:30.205Z,100123.22
2022-09-26T06:33:58.986Z,100114.38
2022-09-26T06:36:26.235Z,100101.09
2022-09-26T06:38:56.009Z,100097.53
2022-09-26T06:41:23.471Z,100096.59
2022-09-26T06:43:50.866Z,100092.91
2022-09-26T06:46:18.476Z,100086.81
2022-09-26T06:48:45.678Z,100077.06
2022-09-26T06:51:15.876Z,100071.59
2022-09-26T06:53:58.984Z,100065.41
2022-09-26T06:56:26.386Z,100056.34
2022-09-26T06:58:53.755Z,100048.16
2022-09-26T07:01:23.912Z,100044.53
2022-09-26T07:03:54.412Z,100040.94
2022-09-26T07:06:22.776Z,100035.53
2022-09-26T07:09:12.024Z,100039.66
2022-09-26T07:12:10.081Z,100036.06
2022-09-26T07:14:31.275Z,100034.91
2022-09-26T07:16:59.058Z,100025.28
2022-09-26T07:19:26.634Z,100017.44
2022-09-26T07:21:55.286Z,100012.81
2022-09-26T07:24:27.281Z,100006.59
2022-09-26T07:27:03.378Z,100012.75
2022-09-26T07:29:31.166Z,100004.69
2022-09-26T07:31:59.609Z,99992.84
2022-09-26T07:34:27.141Z,100003.50
2022-09-26T07:36:54.795Z,99997.31
2022-09-26T07:39:22.563Z,100001.69
2022-09-26T07:41:50.752Z,99993.34
2022-09-26T07:45:09.270Z,99998.50
2022-09-26T07:47:24.056Z,99994.06
2022-09-26T07:50:10.231Z,99988.72
2022-09-26T07:52:42.413Z,99983.69
2022-09-26T07:55:16.246Z,99979.25
2022-09-26T07:57:46.745Z,99979.13
2022-09-26T08:00:18.160Z,99979.03
2022-09-26T08:02:51.210Z,99973.34
2022-09-26T08:05:21.920Z,99974.84
2022-09-26T08:07:49.630Z,99969.38
2022-09-26T08:10:24.265Z,99965.59
2022-09-26T08:12:52.837Z,99962.00
2022-09-26T08:15:26.514Z,99965.31
2022-09-26T08:17:54.707Z,99954.06
2022-09-26T08:20:33.347Z,99959.72
2022-09-26T08:23:03.962Z,99960.34
2022-09-26T08:25:31.328Z,99950.72
2022-09-26T08:28:00.342Z,99959.56
2022-09-26T08:30:30.305Z,99955.22
2022-09-26T08:33:02.724Z,99962.84
2022-09-26T08:35:34.336Z,99954.06
2022-09-26T08:38:09.280Z,99947.97
2022-09-26T08:41:05.511Z,99945.38
2022-09-26T08:43:59.219Z,99947.47
2022-09-26T08:47:02.699Z,99945.66
2022-09-26T08:49:53.224Z,99939.25
2022-09-26T08:52:36.042Z,99943.72
2022-09-26T08:55:37.044Z,99942.59
2022-09-26T08:58:15.466Z,99921.59
2022-09-26T09:00:52.164Z,99936.31
2022-09-26T09:03:53.397Z,99922.47
2022-09-26T09:06:28.647Z,99919.78
2022-09-26T09:09:02.112Z,99919.09
2022-09-26T09:12:15.152Z,99920.19
2022-09-26T09:15:26.647Z,99913.31
2022-09-26T09:18:13.769Z,99904.34
2022-09-26T09:21:13.594Z,99904.28
2022-09-26T09:23:58.126Z,99901.81
2022-09-26T09:30:27.787Z,99899.69
2022-09-26T09:33:06.874Z,99892.91
2022-09-26T09:36:18.217Z,99883.78
2022-09-26T09:38:55.124Z,99887.44
2022-09-26T09:41:59.707Z,99876.31
2022-09-26T09:45:06.320Z,99876.84
2022-09-26T09:47:45.403Z,99873.50
2022-09-26T09:50:50.529Z,99853.69
2022-09-26T09:54:06.931Z,99841.56
2022-09-26T09:57:31.499Z,99844.09
2022-09-26T10:00:18.911Z,99830.66
2022-09-26T10:03:26.735Z,99832.50
2022-09-26T10:06:45.315Z,99824.16
2022-09-26T10:09:36.067Z,99823.09
2022-09-26T10:12:20.381Z,99816.78
2022-09-26T10:15:02.526Z,99811.25
2022-09-26T10:17:30.126Z,99807.59
2022-09-26T10:20:00.833Z,99801.75
2022-09-26T10:22:45.236Z,99800.72
2022-09-26T10:25:28.838Z,99791.41
2022-09-26T10:27:59.474Z,99794.31
2022-09-26T10:30:32.792Z,99792.50
2022-09-26T10:33:04.153Z,99800.41
2022-09-26T10:35:41.629Z,99784.22
2022-09-26T10:38:26.145Z,99783.09
2022-09-26T10:41:02.104Z,99766.13
2022-09-26T10:43:35.289Z,99776.34
2022-09-26T10:46:14.779Z,99768.53
2022-09-26T10:48:55.757Z,99766.00
2022-09-26T10:51:45.958Z,99767.47
2022-09-26T10:54:43.778Z,99749.50
2022-09-26T10:57:28.229Z,99749.09
2022-09-26T11:00:00.091Z,99749.22
2022-09-26T11:02:28.892Z,99757.25
2022-09-26T11:05:23.835Z,99747.50
2022-09-26T11:07:53.541Z,99753.56
2022-09-26T11:10:34.439Z,99750.72
2022-09-26T11:13:21.239Z,99744.34
2022-09-26T11:16:13.385Z,99741.75
2022-09-26T11:18:58.945Z,99748.81
2022-09-26T11:21:46.814Z,99742.22
2022-09-26T11:25:04.943Z,99747.28
2022-09-26T11:28:16.729Z,99737.91
2022-09-26T11:30:48.872Z,99735.13
2022-09-26T11:33:20.135Z,99730.31
2022-09-26T11:36:28.931Z,99725.34
2022-09-26T11:39:23.148Z,99717.03
2022-09-26T11:42:17.630Z,99714.38
2022-09-26T11:44:55.887Z,99705.59
2022-09-26T11:48:15.296Z,99709.09
2022-09-26T11:51:20.194Z,99701.19
2022-09-26T11:54:12.395Z,99695.59
2022-09-26T11:57:10.331Z,99702.31
2022-09-26T12:00:24.689Z,99705.63
2022-09-26T12:03:52.131Z,99692.81
2022-09-26T12:06:42.914Z,99690.06
2022-09-26T12:09:41.251Z,99687.50
2022-09-26T12:12:42.899Z,99690.56
2022-09-26T12:16:15.157Z,99682.31
2022-09-26T12:18:46.186Z,99680.66
2022-09-26T12:22:06.772Z,99677.06
2022-09-26T12:24:54.157Z,99676.34
2022-09-26T12:27:44.153Z,99671.19
2022-09-26T12:30:28.326Z,99674.25
2022-09-26T12:33:28.201Z,99669.75
2022-09-26T12:36:10.021Z,99671.25
2022-09-26T12:39:17.068Z,99673.38
2022-09-26T12:42:06.673Z,99666.53
2022-09-26T12:45:04.160Z,99662.00
2022-09-26T12:47:48.606Z,99655.75
2022-09-26T12:50:37.822Z,99655.91
2022-09-26T12:53:28.202Z,99656.16
2022-09-26T12:56:19.101Z,99648.28
2022-09-26T12:59:01.983Z,99653.22
2022-09-26T13:02:02.056Z,99646.25
2022-09-26T13:05:16.796Z,99644.53
2022-09-26T13:08:38.882Z,99643.63
2022-09-26T13:11:48.426Z,99633.00
2022-09-26T13:15:09.401Z,99638.97
2022-09-26T13:17:46.309Z,99634.16
2022-09-26T13:20:41.821Z,99630.78
2022-09-26T13:23:20.631Z,99627.97
2022-09-26T13:25:59.896Z,99630.97
2022-09-26T13:29:12.789Z,99622.81
2022-09-26T13:31:59.180Z,99622.47
2022-09-26T13:34:40.914Z,99616.63
2022-09-26T13:37:37.379Z,99603.53
2022-09-26T13:40:51.732Z,99617.91
2022-09-26T13:44:04.095Z,99607.75
2022-09-26T13:47:28.699Z,99608.75
2022-09-26T13:50:32.297Z,99602.97
2022-09-26T13:53:13.059Z,99598.72
2022-09-26T13:55:42.936Z,99614.09
2022-09-26T13:58:26.951Z,99604.97
2022-09-26T14:00:54.780Z,99604.09
2022-09-26T14:03:24.967Z,99598.25
2022-09-26T14:06:06.604Z,99590.22
2022-09-26T14:08:55.562Z,99593.59
2022-09-26T14:11:44.046Z,99587.28
2022-09-26T14:14:17.897Z,99583.13
2022-09-26T14:17:03.103Z,99568.44
2022-09-26T14:19:53.695Z,99567.75
2022-09-26T14:22:35.508Z,99570.22
2022-09-26T14:25:04.054Z,99562.25
2022-09-26T14:27:37.602Z,99563.19
2022-09-26T14:30:24.128Z,99559.88
2022-09-26T14:32:59.428Z,99558.25
2022-09-26T14:35:37.947Z,99550.19
2022-09-26T14:38:24.237Z,99547.16
2022-09-26T14:40:58.658Z,99548.34
2022-09-26T14:43:30.534Z,99542.38
2022-09-26T14:46:14.452Z,99542.03
2022-09-26T14:48:44.090Z,99539.78
2022-09-26T14:51:11.783Z,99537.16
2022-09-26T14:53:57.225Z,99528.50
2022-09-26T14:56:30.521Z,99532.91
2022-09-26T14:59:16.062Z,99531.00
2022-09-26T15:01:45.302Z,99528.06
2022-09-26T15:04:22.496Z,99518.47
2022-09-26T15:07:06.155Z,99520.56
2022-09-26T15:10:03.060Z,99516.44
2022-09-26T15:13:20.700Z,99509.75
2022-09-26T15:15:55.351Z,99508.03
2022-09-26T15:18:41.913Z,99506.53
2022-09-26T15:21:26.524Z,99506.06
2022-09-26T15:23:57.435Z,99512.31
2022-09-26T15:26:36.668Z,99507.16
2022-09-26T15:29:07.844Z,99501.25
2022-09-26T15:31:46.259Z,99508.09
2022-09-26T15:34:24.407Z,99503.72
2022-09-26T15:36:56.894Z,99502.97
2022-09-26T15:39:33.147Z,99489.22
2022-09-26T15:42:29.731Z,99491.84
2022-09-26T15:45:00.324Z,99483.38
2022-09-26T15:47:44.470Z,99486.84
2022-09-26T15:50:17.353Z,99490.28
2022-09-26T15:53:10.247Z,99480.09
2022-09-26T15:56:09.266Z,99479.16
2022-09-26T15:58:46.593Z,99477.28
2022-09-26T16:01:19.593Z,99477.31
2022-09-26T16:03:57.682Z,99480.78
2022-09-26T16:06:29.169Z,99473.72
2022-09-26T16:09:08.125Z,99471.13
2022-09-26T16:12:15.429Z,99467.44
2022-09-26T16:14:53.278Z,99479.69
2022-09-26T16:17:49.155Z,99473.38
2022-09-26T16:20:16.336Z,99475.38
2022-09-26T16:22:54.831Z,99478.88
2022-09-26T16:25:34.311Z,99484.97
2022-09-26T16:28:39.840Z,99477.03
2022-09-26T16:31:08.626Z,99477.09
2022-09-26T16:33:40.024Z,99470.88
2022-09-26T16:36:22.369Z,99462.34
2022-09-26T16:38:57.868Z,99471.94
2022-09-26T16:44:35.475Z,99472.75
2022-09-26T16:47:07.032Z,99472.00
2022-09-26T16:49:48.426Z,99473.00
2022-09-26T16:52:29.451Z,99468.66
2022-09-26T16:55:10.821Z,99472.19
2022-09-26T16:58:12.888Z,99471.31
2022-09-26T17:00:59.353Z,99472.09
2022-09-26T17:03:31.942Z,99467.69
2022-09-26T17:06:00.911Z,99462.41
2022-09-26T17:08:31.348Z,99458.09
2022-09-26T17:11:10.082Z,99457.72
2022-09-26T17:13:40.291Z,99462.41
2022-09-26T17:16:10.954Z,99455.28
2022-09-26T17:18:38.719Z,99456.13
2022-09-26T17:21:06.712Z,99451.94
2022-09-26T17:23:41.316Z,99459.97
2022-09-26T17:26:16.177Z,99464.19
2022-09-26T17:28:43.603Z,99456.50
2022-09-26T17:31:19.798Z,99455.72
2022-09-26T17:33:51.716Z,99458.22
2022-09-26T17:36:30.854Z,99461.19
2022-09-26T17:39:00.240Z,99439.19
2022-09-26T17:41:29.178Z,99443.69
2022-09-26T17:44:00.276Z,99442.59
2022-09-26T17:46:29.015Z,99430.84
2022-09-26T17:49:05.420Z,99431.59
2022-09-26T17:51:33.743Z,99434.72
2022-09-26T17:54:01.200Z,99443.06
2022-09-26T17:56:31.641Z,99449.53
2022-09-26T17:58:59.246Z,99440.00
2022-09-26T18:01:33.673Z,99444.16
2022-09-26T18:04:07.591Z,99443.50
2022-09-26T18:06:36.995Z,99445.34
2022-09-26T18:09:09.587Z,99436.47
2022-09-26T18:11:37.389Z,99443.94
2022-09-26T18:14:07.086Z,99441.94
2022-09-26T18:16:34.461Z,99447.75
2022-09-26T18:19:06.824Z,99441.06
2022-09-26T18:21:35.099Z,99436.91
2022-09-26T18:24:07.029Z,99442.72
2022-09-26T18:26:47.648Z,99445.06
2022-09-26T18:29:30.042Z,99439.72
2022-09-26T18:31:59.011Z,99445.34
2022-09-26T18:34:26.152Z,99438.41
2022-09-26T18:36:57.020Z,99434.97
2022-09-26T18:39:25.275Z,99438.53
2022-09-26T18:42:02.520Z,99439.44
2022-09-26T18:44:33.396Z,99439.56
2022-09-26T18:47:03.823Z,99446.75
2022-09-26T18:49:34.898Z,99447.78
2022-09-26T18:52:02.155Z,99440.44
2022-09-26T18:54:33.823Z,99443.81
2022-09-26T18:57:19.600Z,99454.44
2022-09-26T18:59:46.930Z,99452.69
2022-09-26T19:02:26.856Z,99454.53
2022-09-26T19:04:57.080Z,99454.56
2022-09-26T19:07:24.670Z,99459.66
2022-09-26T19:09:54.396Z,99459.53
2022-09-26T19:12:21.916Z,99462.97
2022-09-26T19:14:49.191Z,99470.84
2022-09-26T19:17:16.438Z,99462.81
2022-09-26T19:19:43.627Z,99467.97
2022-09-26T19:22:16.917Z,99471.69
2022-09-26T19:24:56.133Z,99468.94
2022-09-26T19:27:28.456Z,99474.34
2022-09-26T19:30:11.711Z,99476.78
2022-09-26T19:32:46.515Z,99470.66
2022-09-26T19:35:30.712Z,99478.75
2022-09-26T19:38:03.073Z,99468.94
2022-09-26T19:40:30.786Z,99476.06
2022-09-26T19:43:01.066Z,99483.06
2022-09-26T19:45:32.167Z,99475.19
2022-09-26T19:48:00.152Z,99466.31
2022-09-26T19:50:28.172Z,99476.00
2022-09-26T19:52:58.969Z,99483.91
2022-09-26T19:55:29.257Z,99473.38
2022-09-26T19:58:17.501Z,99474.22
2022-09-26T20:00:47.872Z,99475.25
2022-09-26T20:03:22.755Z,99482.31
2022-09-26T20:05:50.451Z,99480.53
2022-09-26T20:08:25.038Z,99476.31
2022-09-26T20:11:04.261Z,99475.50
2022-09-26T20:13:51.359Z,99468.50
2022-09-26T20:16:19.284Z,99481.63
2022-09-26T20:18:51.156Z,99478.13
2022-09-26T20:21:22.993Z,99482.50
2022-09-26T20:23:50.501Z,99477.28
2022-09-26T20:26:18.500Z,99480.81
2022-09-26T20:28:46.021Z,99483.59
2022-09-26T20:31:25.786Z,99476.53
2022-09-26T20:33:54.482Z,99474.69
2022-09-26T20:36:46.113Z,99470.38
2022-09-26T20:39:18.547Z,99481.13
2022-09-26T20:41:45.754Z,99475.91
2022-09-26T20:44:29.930Z,99478.59
2022-09-26T20:47:01.397Z,99477.91
2022-09-26T20:49:58.754Z,99475.53
2022-09-26T20:52:28.807Z,99479.13
2022-09-26T20:54:57.979Z,99477.25
2022-09-26T20:57:25.654Z,99483.78
2022-09-26T20:59:52.784Z,99490.97
2022-09-26T21:02:31.000Z,99496.47
2022-09-26T21:05:00.394Z,99497.94
2022-09-26T21:07:32.719Z,99504.28
2022-09-26T21:09:59.899Z,99503.53
2022-09-26T21:12:27.032Z,99507.22
2022-09-26T21:14:54.033Z,99507.22
2022-09-26T21:17:28.690Z,99497.50
2022-09-26T21:19:56.676Z,99512.72
2022-09-26T21:22:27.019Z,99508.09
2022-09-26T21:24:54.320Z,99507.09
2022-09-26T21:27:21.766Z,99504.66
2022-09-26T21:29:48.813Z,99497.63
2022-09-26T21:32:21.504Z,99509.03
2022-09-26T21:35:02.449Z,99499.38
2022-09-26T21:37:30.922Z,99516.06
2022-09-26T21:39:58.241Z,99509.19
2022-09-26T21:42:26.422Z,99524.13
2022-09-26T21:45:00.901Z,99527.59
2022-09-26T21:47:28.457Z,99526.13
2022-09-26T21:49:55.554Z,99538.25
2022-09-26T21:52:48.408Z,99530.47
2022-09-26T21:55:25.371Z,99539.25
2022-09-26T21:57:58.731Z,99540.22
2022-09-26T22:00:26.082Z,99535.66
2022-09-26T22:02:54.073Z,99533.97
2022-09-26T22:05:22.563Z,99542.97
2022-09-26T22:07:49.905Z,99543.75
2022-09-26T22:10:17.442Z,99541.13
2022-09-26T22:12:44.647Z,99542.06
2022-09-26T22:15:11.777Z,99537.88
2022-09-26T22:17:39.004Z,99536.09
2022-09-26T22:20:06.377Z,99525.41
2022-09-26T22:22:33.415Z,99529.88
2022-09-26T22:25:04.025Z,99517.41
2022-09-26T22:27:33.270Z,99520.78
2022-09-26T22:30:00.404Z,99522.47
2022-09-26T22:32:27.562Z,99516.34
2022-09-26T22:34:54.647Z,99515.56
2022-09-26T22:37:21.698Z,99512.19
2022-09-26T22:39:49.158Z,99509.47
2022-09-26T22:42:16.262Z,99510.41
2022-09-26T22:44:43.389Z,99512.97
2022-09-26T22:47:10.808Z,99512.97
2022-09-26T22:49:38.309Z,99514.78
2022-09-26T22:52:05.303Z,99516.53
2022-09-26T22:54:32.346Z,99518.31
2022-09-26T22:56:59.465Z,99523.69
2022-09-26T22:59:26.906Z,99521.09
2022-09-26T23:01:57.278Z,99520.28
2022-09-26T23:04:44.489Z,99527.47
2022-09-26T23:07:11.998Z,99529.31
2022-09-26T23:09:39.284Z,99526.81
2022-09-26T23:12:07.420Z,99522.56
2022-09-26T23:14:34.816Z,99522.75
2022-09-26T23:17:02.458Z,99514.78
2022-09-26T23:19:29.735Z,99517.47
2022-09-26T23:21:57.718Z,99514.91
2022-09-26T23:24:25.251Z,99521.22
2022-09-26T23:26:52.382Z,99524.56
2022-09-26T23:29:19.537Z,99527.09
2022-09-26T23:31:46.702Z,99525.34
2022-09-26T23:34:14.523Z,99516.50
2022-09-26T23:36:41.699Z,99519.31
2022-09-26T23:39:08.869Z,99518.44
2022-09-26T23:41:36.440Z,99522.94
2022-09-26T23:44:03.575Z,99530.72
2022-09-26T23:46:30.760Z,99522.84
2022-09-26T23:48:57.940Z,99521.16
2022-09-26T23:51:25.070Z,99530.03
2022-09-26T23:53:53.793Z,99526.59
2022-09-26T23:56:21.250Z,99534.34
2022-09-26T23:58:48.445Z,99539.66
